createdAt,value
2023-02-19T00:02:17.300Z,18.09
2023-02-19T00:04:59.692Z,18.08
2023-02-19T00:07:32.501Z,18.08
2023-02-19T00:10:22.843Z,18.01
2023-02-19T00:13:09.710Z,18.09
2023-02-19T00:15:45.360Z,18.06
2023-02-19T00:18:26.465Z,18.08
2023-02-19T00:20:59.028Z,18.07
2023-02-19T00:23:32.539Z,17.94
2023-02-19T00:26:18.253Z,18.06
2023-02-19T00:28:53.983Z,18.04
2023-02-19T00:31:35.507Z,18.03
2023-02-19T00:34:10.663Z,18.02
2023-02-19T00:36:43.914Z,17.97
2023-02-19T00:39:27.082Z,18.04
2023-02-19T00:42:00.854Z,17.97
2023-02-19T00:44:42.247Z,17.90
2023-02-19T00:47:15.874Z,17.95
2023-02-19T00:49:54.645Z,17.97
2023-02-19T00:52:28.392Z,17.85
2023-02-19T00:55:00.981Z,17.94
2023-02-19T00:57:33.526Z,17.95
2023-02-19T01:00:10.711Z,17.99
2023-02-19T01:02:54.810Z,17.97
2023-02-19T01:05:36.222Z,17.86
2023-02-19T01:08:08.818Z,17.91
2023-02-19T01:10:41.491Z,17.94
2023-02-19T01:13:18.412Z,17.93
2023-02-19T01:16:14.260Z,18.05
2023-02-19T01:19:13.082Z,18.09
2023-02-19T01:21:48.450Z,17.96
2023-02-19T01:24:20.994Z,17.90
2023-02-19T01:26:56.837Z,17.89
2023-02-19T01:29:38.798Z,17.81
2023-02-19T01:32:20.602Z,17.85
2023-02-19T01:34:59.686Z,17.79
2023-02-19T01:37:32.354Z,17.89
2023-02-19T01:40:05.476Z,17.93
2023-02-19T01:42:44.019Z,17.90
2023-02-19T01:45:32.719Z,17.92
2023-02-19T01:48:14.409Z,17.92
2023-02-19T01:51:07.037Z,17.94
2023-02-19T01:53:47.240Z,17.92
2023-02-19T01:56:22.014Z,17.89
2023-02-19T01:58:54.906Z,17.90
2023-02-19T02:01:27.659Z,17.92
2023-02-19T02:04:01.019Z,17.80
2023-02-19T02:06:53.052Z,17.87
2023-02-19T02:09:49.590Z,17.90
2023-02-19T02:12:22.092Z,17.87
2023-02-19T02:14:54.839Z,17.71
2023-02-19T02:17:40.139Z,17.89
2023-02-19T02:20:28.049Z,17.88
2023-02-19T02:23:46.723Z,17.87
2023-02-19T02:26:35.024Z,17.90
2023-02-19T02:29:32.156Z,17.88
2023-02-19T02:32:18.013Z,17.86
2023-02-19T02:35:07.646Z,17.88
2023-02-19T02:37:44.711Z,17.82
2023-02-19T02:40:19.287Z,17.84
2023-02-19T02:42:51.921Z,17.70
2023-02-19T02:45:37.094Z,17.71
2023-02-19T02:48:26.236Z,17.84
2023-02-19T02:51:12.583Z,17.82
2023-02-19T02:54:12.028Z,17.82
2023-02-19T02:56:47.880Z,17.81
2023-02-19T02:59:27.056Z,17.81
2023-02-19T03:02:22.915Z,17.86
2023-02-19T03:05:28.468Z,17.84
2023-02-19T03:08:24.433Z,17.87
2023-02-19T03:11:29.501Z,17.82
2023-02-19T03:14:34.970Z,17.82
2023-02-19T03:17:37.763Z,17.81
2023-02-19T03:20:15.703Z,17.79
2023-02-19T03:22:52.210Z,17.77
2023-02-19T03:25:50.428Z,17.75
2023-02-19T03:28:47.212Z,17.77
2023-02-19T03:31:24.880Z,17.77
2023-02-19T03:34:08.536Z,17.78
2023-02-19T03:36:48.136Z,17.76
2023-02-19T03:39:24.375Z,17.67
2023-02-19T03:42:24.509Z,17.78
2023-02-19T03:45:09.501Z,17.77
2023-02-19T03:47:54.480Z,17.71
2023-02-19T03:50:50.384Z,17.73
2023-02-19T03:54:04.352Z,17.74
2023-02-19T03:56:58.766Z,17.77
2023-02-19T03:59:57.194Z,17.77
2023-02-19T04:02:50.578Z,17.73
2023-02-19T04:05:29.641Z,17.70
2023-02-19T04:08:15.191Z,17.72
2023-02-19T04:10:51.659Z,17.70
2023-02-19T04:13:36.458Z,17.73
2023-02-19T04:16:18.531Z,17.68
2023-02-19T04:19:02.742Z,17.52
2023-02-19T04:21:39.396Z,17.68
2023-02-19T04:24:31.065Z,17.68
2023-02-19T04:27:06.403Z,17.65
2023-02-19T04:32:35.475Z,17.66
2023-02-19T04:35:08.577Z,17.63
2023-02-19T04:37:41.109Z,17.64
2023-02-19T04:40:13.920Z,17.61
2023-02-19T04:42:46.437Z,17.62
2023-02-19T04:45:19.116Z,17.60
2023-02-19T04:47:51.735Z,17.62
2023-02-19T04:50:26.265Z,17.60
2023-02-19T04:53:14.224Z,17.64
2023-02-19T04:58:45.820Z,17.63
2023-02-19T05:01:18.695Z,17.63
2023-02-19T05:03:51.987Z,17.61
2023-02-19T05:06:24.732Z,17.58
2023-02-19T05:09:12.278Z,17.55
2023-02-19T05:11:44.833Z,17.60
2023-02-19T05:14:17.615Z,17.60
2023-02-19T05:16:50.246Z,17.59
2023-02-19T05:19:23.083Z,17.60
2023-02-19T05:21:55.805Z,17.60
2023-02-19T05:24:28.708Z,17.46
2023-02-19T05:27:01.213Z,17.48
2023-02-19T05:29:33.801Z,17.54
2023-02-19T05:32:06.342Z,17.57
2023-02-19T05:34:41.197Z,17.55
2023-02-19T05:37:14.335Z,17.57
2023-02-19T05:39:48.969Z,17.57
2023-02-19T05:42:24.625Z,17.51
2023-02-19T05:44:59.218Z,17.47
2023-02-19T05:47:31.819Z,17.45
2023-02-19T05:50:06.014Z,17.40
2023-02-19T05:52:38.489Z,17.80
2023-02-19T05:55:12.421Z,17.45
2023-02-19T05:57:48.099Z,17.52
2023-02-19T06:00:21.656Z,17.50
2023-02-19T06:02:54.763Z,17.54
2023-02-19T06:05:27.625Z,17.53
2023-02-19T06:08:00.259Z,17.53
2023-02-19T06:10:32.962Z,17.51
2023-02-19T06:13:05.711Z,17.52
2023-02-19T06:15:39.155Z,17.52
2023-02-19T06:18:11.648Z,17.52
2023-02-19T06:20:44.225Z,17.48
2023-02-19T06:23:16.756Z,17.41
2023-02-19T06:25:49.296Z,17.50
2023-02-19T06:28:21.965Z,17.49
2023-02-19T06:30:54.728Z,17.48
2023-02-19T06:33:28.767Z,17.47
2023-02-19T06:36:04.297Z,17.46
2023-02-19T06:38:37.251Z,17.49
2023-02-19T06:41:12.149Z,17.52
2023-02-19T06:43:46.626Z,17.55
2023-02-19T06:46:19.298Z,17.59
2023-02-19T06:48:52.116Z,17.55
2023-02-19T06:51:27.160Z,17.64
2023-02-19T06:54:11.952Z,17.70
2023-02-19T06:57:00.475Z,17.79
2023-02-19T06:59:33.116Z,17.85
2023-02-19T07:02:06.018Z,17.93
2023-02-19T07:04:38.602Z,17.98
2023-02-19T07:07:12.252Z,18.04
2023-02-19T07:09:44.801Z,18.10
2023-02-19T07:12:17.344Z,18.20
2023-02-19T07:14:50.107Z,18.25
2023-02-19T07:17:22.719Z,18.27
2023-02-19T07:19:55.336Z,18.36
2023-02-19T07:22:27.984Z,18.43
2023-02-19T07:25:00.521Z,18.43
2023-02-19T07:27:33.217Z,18.49
2023-02-19T07:30:10.002Z,18.54
2023-02-19T07:32:42.869Z,18.60
2023-02-19T07:35:15.800Z,18.69
2023-02-19T07:38:08.824Z,18.73
2023-02-19T07:40:51.180Z,18.69
2023-02-19T07:43:26.193Z,18.81
2023-02-19T07:46:02.170Z,18.86
2023-02-19T07:48:42.585Z,18.88
2023-02-19T07:51:21.851Z,18.95
2023-02-19T07:53:54.467Z,18.93
2023-02-19T07:56:28.838Z,19.00
2023-02-19T07:59:01.380Z,18.96
2023-02-19T08:01:52.712Z,19.03
2023-02-19T08:04:25.333Z,19.03
2023-02-19T08:06:57.869Z,19.02
2023-02-19T08:09:30.499Z,18.97
2023-02-19T08:12:21.820Z,19.12
2023-02-19T08:14:54.571Z,19.13
2023-02-19T08:17:27.173Z,19.12
2023-02-19T08:19:59.759Z,19.11
2023-02-19T08:22:32.258Z,19.04
2023-02-19T08:25:08.462Z,19.12
2023-02-19T08:27:41.010Z,19.06
2023-02-19T08:30:13.801Z,19.12
2023-02-19T08:32:46.314Z,19.07
2023-02-19T08:35:18.899Z,19.16
2023-02-19T08:37:51.994Z,19.16
2023-02-19T08:40:26.260Z,19.17
2023-02-19T08:43:11.422Z,19.16
2023-02-19T08:45:47.328Z,19.16
2023-02-19T08:48:19.947Z,19.15
2023-02-19T08:50:58.129Z,19.09
2023-02-19T08:53:35.579Z,19.16
2023-02-19T08:56:12.570Z,19.13
2023-02-19T08:58:56.813Z,19.16
2023-02-19T09:01:34.988Z,19.18
2023-02-19T09:04:12.635Z,19.09
2023-02-19T09:06:45.320Z,19.10
2023-02-19T09:09:17.972Z,19.06
2023-02-19T09:11:50.674Z,19.10
2023-02-19T09:14:23.350Z,19.16
2023-02-19T09:16:58.009Z,19.07
2023-02-19T09:19:31.214Z,19.14
2023-02-19T09:22:05.773Z,19.16
2023-02-19T09:24:43.688Z,19.13
2023-02-19T09:27:20.245Z,19.14
2023-02-19T09:29:53.116Z,19.03
2023-02-19T09:32:25.894Z,19.05
2023-02-19T09:34:58.646Z,19.06
2023-02-19T09:37:34.226Z,19.12
2023-02-19T09:40:10.326Z,19.05
2023-02-19T09:42:44.171Z,19.13
2023-02-19T09:45:24.934Z,19.21
2023-02-19T09:48:07.563Z,19.10
2023-02-19T09:50:47.709Z,19.19
2023-02-19T09:53:42.089Z,19.15
2023-02-19T09:56:17.152Z,19.19
2023-02-19T09:58:58.299Z,19.10
2023-02-19T10:01:41.048Z,19.13
2023-02-19T10:04:13.801Z,19.16
2023-02-19T10:06:51.266Z,19.04
2023-02-19T10:09:32.829Z,19.07
2023-02-19T10:12:16.301Z,19.20
2023-02-19T10:14:55.861Z,19.17
2023-02-19T10:17:34.744Z,19.17
2023-02-19T10:20:17.487Z,19.08
2023-02-19T10:23:00.350Z,19.12
2023-02-19T10:25:45.320Z,19.12
2023-02-19T10:28:22.464Z,19.09
2023-02-19T10:30:59.284Z,19.05
2023-02-19T10:33:32.118Z,19.05
2023-02-19T10:36:07.911Z,19.03
2023-02-19T10:38:47.549Z,18.95
2023-02-19T10:41:25.297Z,19.00
2023-02-19T10:44:21.831Z,19.02
2023-02-19T10:46:59.297Z,18.98
2023-02-19T10:49:44.049Z,19.01
2023-02-19T10:52:31.870Z,18.97
2023-02-19T10:55:26.427Z,18.99
2023-02-19T10:58:24.097Z,19.02
2023-02-19T11:01:21.666Z,19.00
2023-02-19T11:04:18.275Z,18.97
2023-02-19T11:06:51.614Z,18.79
2023-02-19T11:09:49.643Z,18.86
2023-02-19T11:12:29.961Z,18.72
2023-02-19T11:15:38.787Z,18.72
2023-02-19T11:18:25.964Z,18.87
2023-02-19T11:21:05.625Z,18.83
2023-02-19T11:23:47.245Z,18.79
2023-02-19T11:26:38.300Z,18.84
2023-02-19T11:29:24.546Z,18.87
2023-02-19T11:32:22.478Z,18.81
2023-02-19T11:35:18.755Z,18.91
2023-02-19T11:37:59.106Z,18.80
2023-02-19T11:40:41.706Z,18.84
2023-02-19T11:43:56.144Z,18.81
2023-02-19T11:46:46.581Z,18.81
2023-02-19T11:50:01.849Z,18.80
2023-02-19T11:53:22.006Z,18.88
2023-02-19T11:56:24.291Z,18.81
2023-02-19T11:59:40.561Z,18.87
2023-02-19T12:02:51.596Z,18.85
2023-02-19T12:05:42.396Z,18.72
2023-02-19T12:09:00.305Z,18.76
2023-02-19T12:11:53.580Z,18.74
2023-02-19T12:15:04.888Z,18.77
2023-02-19T12:17:52.556Z,18.75
2023-02-19T12:21:18.717Z,18.80
2023-02-19T12:24:32.969Z,18.80
2023-02-19T12:27:35.025Z,18.80
2023-02-19T12:30:46.518Z,18.79
2023-02-19T12:33:34.201Z,18.69
2023-02-19T12:36:35.273Z,18.72
2023-02-19T12:39:39.101Z,18.67
2023-02-19T12:42:40.115Z,18.64
2023-02-19T12:45:34.245Z,18.69
2023-02-19T12:48:20.422Z,18.66
2023-02-19T12:51:21.335Z,18.55
2023-02-19T12:54:12.528Z,18.73
2023-02-19T12:57:04.421Z,18.56
2023-02-19T12:59:57.596Z,18.69
2023-02-19T13:02:53.603Z,18.64
2023-02-19T13:06:01.624Z,18.71
2023-02-19T13:09:05.507Z,18.64
2023-02-19T13:11:49.261Z,18.64
2023-02-19T13:14:34.593Z,18.53
2023-02-19T13:17:19.790Z,18.59
2023-02-19T13:20:01.798Z,18.53
2023-02-19T13:23:16.631Z,18.55
2023-02-19T13:26:10.841Z,18.60
2023-02-19T13:29:00.491Z,18.55
2023-02-19T13:31:55.219Z,18.56
2023-02-19T13:34:53.540Z,18.81
2023-02-19T13:37:31.690Z,18.58
2023-02-19T13:40:24.985Z,18.68
2023-02-19T13:43:02.360Z,18.62
2023-02-19T13:45:46.185Z,18.73
2023-02-19T13:48:38.147Z,18.77
2023-02-19T13:51:23.546Z,18.82
2023-02-19T13:54:40.226Z,18.73
2023-02-19T13:57:26.970Z,18.92
2023-02-19T14:00:00.202Z,18.89
2023-02-19T14:02:45.912Z,18.82
2023-02-19T14:06:06.395Z,19.07
2023-02-19T14:08:56.243Z,19.06
2023-02-19T14:11:44.329Z,19.11
2023-02-19T14:14:23.418Z,19.09
2023-02-19T14:17:04.730Z,19.11
2023-02-19T14:20:11.917Z,19.21
2023-02-19T14:22:47.363Z,19.20
2023-02-19T14:25:31.950Z,19.22
2023-02-19T14:28:10.542Z,19.25
2023-02-19T14:31:02.673Z,19.25
2023-02-19T14:33:43.394Z,19.26
2023-02-19T14:36:37.536Z,19.38
2023-02-19T14:39:29.796Z,19.34
2023-02-19T14:42:12.842Z,19.30
2023-02-19T14:44:58.816Z,19.37
2023-02-19T14:47:35.093Z,19.34
2023-02-19T14:50:23.799Z,19.33
2023-02-19T14:53:02.962Z,19.34
2023-02-19T14:55:43.046Z,19.32
2023-02-19T14:58:25.745Z,19.37
2023-02-19T15:00:58.561Z,19.36
2023-02-19T15:03:37.742Z,19.37
2023-02-19T15:06:19.769Z,19.33
2023-02-19T15:08:59.155Z,19.34
2023-02-19T15:11:35.417Z,19.33
2023-02-19T15:14:20.479Z,19.29
2023-02-19T15:17:02.475Z,19.27
2023-02-19T15:19:39.683Z,19.25
2023-02-19T15:22:21.029Z,19.27
2023-02-19T15:24:54.564Z,19.25
2023-02-19T15:27:27.283Z,19.26
2023-02-19T15:30:02.631Z,19.21
2023-02-19T15:32:35.438Z,19.22
2023-02-19T15:35:19.831Z,19.25
2023-02-19T15:37:53.658Z,19.46
2023-02-19T15:40:31.278Z,19.22
2023-02-19T15:43:04.916Z,19.18
2023-02-19T15:45:48.146Z,19.19
2023-02-19T15:48:32.569Z,19.13
2023-02-19T15:51:14.112Z,19.39
2023-02-19T15:53:58.848Z,19.11
2023-02-19T15:56:38.486Z,19.06
2023-02-19T15:59:36.640Z,19.12
2023-02-19T16:02:14.202Z,19.01
2023-02-19T16:04:47.530Z,18.99
2023-02-19T16:07:31.952Z,19.01
2023-02-19T16:10:26.346Z,19.24
2023-02-19T16:13:02.037Z,18.98
2023-02-19T16:15:35.792Z,18.90
2023-02-19T16:18:15.072Z,18.90
2023-02-19T16:20:48.598Z,18.75
2023-02-19T16:23:24.420Z,18.81
2023-02-19T16:26:03.504Z,18.71
2023-02-19T16:28:42.672Z,18.78
2023-02-19T16:31:15.765Z,18.73
2023-02-19T16:33:51.697Z,18.74
2023-02-19T16:36:48.660Z,18.85
2023-02-19T16:39:37.640Z,18.62
2023-02-19T16:42:15.535Z,18.72
2023-02-19T16:44:48.518Z,18.71
2023-02-19T16:47:34.377Z,18.70
2023-02-19T16:50:17.555Z,18.57
2023-02-19T16:53:03.117Z,18.67
2023-02-19T16:55:41.864Z,18.48
2023-02-19T16:58:23.791Z,18.51
2023-02-19T17:01:13.473Z,18.63
2023-02-19T17:03:48.839Z,18.53
2023-02-19T17:06:35.163Z,18.46
2023-02-19T17:09:16.717Z,18.46
2023-02-19T17:11:52.063Z,18.53
2023-02-19T17:14:24.802Z,18.40
2023-02-19T17:16:57.492Z,18.52
2023-02-19T17:19:45.278Z,18.46
2023-02-19T17:22:18.187Z,18.42
2023-02-19T17:24:57.056Z,18.35
2023-02-19T17:27:35.654Z,18.35
2023-02-19T17:30:27.613Z,18.49
2023-02-19T17:33:00.422Z,18.44
2023-02-19T17:35:33.093Z,18.44
2023-02-19T17:38:09.461Z,18.43
2023-02-19T17:40:42.029Z,18.35
2023-02-19T17:43:14.903Z,18.41
2023-02-19T17:45:47.552Z,18.38
2023-02-19T17:48:20.255Z,18.36
2023-02-19T17:50:52.944Z,18.28
2023-02-19T17:53:25.492Z,18.26
2023-02-19T17:55:58.067Z,18.33
2023-02-19T17:58:30.921Z,18.31
2023-02-19T18:01:03.648Z,18.28
2023-02-19T18:03:36.178Z,18.30
2023-02-19T18:06:08.767Z,18.29
2023-02-19T18:08:51.610Z,18.29
2023-02-19T18:11:24.389Z,18.27
2023-02-19T18:13:57.276Z,18.26
2023-02-19T18:16:37.856Z,18.21
2023-02-19T18:19:10.719Z,18.26
2023-02-19T18:21:43.405Z,18.25
2023-02-19T18:24:16.025Z,18.19
2023-02-19T18:26:48.609Z,18.15
2023-02-19T18:29:29.055Z,18.22
2023-02-19T18:32:07.798Z,18.23
2023-02-19T18:34:56.744Z,18.23
2023-02-19T18:37:43.038Z,18.21
2023-02-19T18:40:15.712Z,18.08
2023-02-19T18:42:48.841Z,18.14
2023-02-19T18:45:21.554Z,18.13
2023-02-19T18:47:54.296Z,18.04
2023-02-19T18:50:26.970Z,18.04
2023-02-19T18:52:59.535Z,18.09
2023-02-19T18:55:44.355Z,18.14
2023-02-19T18:58:18.727Z,18.03
2023-02-19T19:00:51.989Z,18.05
2023-02-19T19:03:24.967Z,18.02
2023-02-19T19:05:58.471Z,18.07
2023-02-19T19:08:31.038Z,18.06
2023-02-19T19:11:09.700Z,18.06
2023-02-19T19:13:42.396Z,18.09
2023-02-19T19:16:15.031Z,17.96
2023-02-19T19:18:47.635Z,18.01
2023-02-19T19:21:21.341Z,17.97
2023-02-19T19:23:53.878Z,18.04
2023-02-19T19:26:26.398Z,17.98
2023-02-19T19:28:58.965Z,17.98
2023-02-19T19:31:37.592Z,18.05
2023-02-19T19:34:12.034Z,18.03
2023-02-19T19:36:45.556Z,18.00
2023-02-19T19:39:27.163Z,18.00
2023-02-19T19:41:59.881Z,17.99
2023-02-19T19:44:32.520Z,17.88
2023-02-19T19:47:05.116Z,17.99
2023-02-19T19:49:37.797Z,17.95
2023-02-19T19:52:10.373Z,17.85
2023-02-19T19:54:46.289Z,17.80
2023-02-19T19:57:18.838Z,17.83
2023-02-19T19:59:51.939Z,17.91
2023-02-19T20:02:24.940Z,17.93
2023-02-19T20:04:57.563Z,17.93
2023-02-19T20:07:30.439Z,17.92
2023-02-19T20:10:03.496Z,17.89
2023-02-19T20:12:36.082Z,17.87
2023-02-19T20:15:10.122Z,17.90
2023-02-19T20:17:55.248Z,17.89
2023-02-19T20:20:28.065Z,17.83
2023-02-19T20:23:00.822Z,17.87
2023-02-19T20:25:34.120Z,17.89
2023-02-19T20:28:06.799Z,17.84
2023-02-19T20:30:39.426Z,17.78
2023-02-19T20:33:12.145Z,17.80
2023-02-19T20:35:50.665Z,17.83
2023-02-19T20:38:29.225Z,17.70
2023-02-19T20:41:14.324Z,17.79
2023-02-19T20:43:55.870Z,17.74
2023-02-19T20:46:46.320Z,17.75
2023-02-19T20:49:22.259Z,17.83
2023-02-19T20:52:04.726Z,17.75
2023-02-19T20:54:38.373Z,17.89
2023-02-19T20:57:12.210Z,17.93
2023-02-19T20:59:44.936Z,17.96
2023-02-19T21:02:27.920Z,17.99
2023-02-19T21:05:01.445Z,18.06
2023-02-19T21:07:34.138Z,18.06
2023-02-19T21:10:07.722Z,18.09
2023-02-19T21:12:50.662Z,18.02
2023-02-19T21:15:24.120Z,18.22
2023-02-19T21:17:56.830Z,18.27
2023-02-19T21:20:29.449Z,18.23
2023-02-19T21:23:02.128Z,18.37
2023-02-19T21:25:35.691Z,18.27
2023-02-19T21:28:09.776Z,18.31
2023-02-19T21:31:00.711Z,18.69
2023-02-19T21:33:39.237Z,18.55
2023-02-19T21:36:24.186Z,18.43
2023-02-19T21:39:02.972Z,18.46
2023-02-19T21:41:38.312Z,18.50
2023-02-19T21:44:11.477Z,18.48
2023-02-19T21:46:44.097Z,18.62
2023-02-19T21:49:17.876Z,18.65
2023-02-19T21:51:50.469Z,18.64
2023-02-19T21:54:25.456Z,18.64
2023-02-19T21:57:03.139Z,18.65
2023-02-19T21:59:35.703Z,18.68
2023-02-19T22:02:28.574Z,18.76
2023-02-19T22:05:02.527Z,18.57
2023-02-19T22:07:40.945Z,18.61
2023-02-19T22:10:16.849Z,18.59
2023-02-19T22:12:58.981Z,18.56
2023-02-19T22:15:31.556Z,18.51
2023-02-19T22:18:04.546Z,18.61
2023-02-19T22:23:35.433Z,18.60
2023-02-19T22:26:24.513Z,18.57
2023-02-19T22:28:59.276Z,18.53
2023-02-19T22:31:38.228Z,18.48
2023-02-19T22:34:12.162Z,18.46
2023-02-19T22:36:44.800Z,18.53
2023-02-19T22:39:24.814Z,18.46
2023-02-19T22:41:57.612Z,18.49
2023-02-19T22:44:30.211Z,18.46
2023-02-19T22:47:03.086Z,18.44
2023-02-19T22:49:39.486Z,18.41
2023-02-19T22:52:12.943Z,18.42
2023-02-19T22:54:46.693Z,18.41
2023-02-19T22:57:19.427Z,18.41
2023-02-19T22:59:52.051Z,18.38
2023-02-19T23:02:24.774Z,18.37
2023-02-19T23:04:57.499Z,18.34
2023-02-19T23:07:50.714Z,18.32
2023-02-19T23:10:23.501Z,18.32
2023-02-19T23:13:02.296Z,18.32
2023-02-19T23:15:47.064Z,18.27
2023-02-19T23:18:22.172Z,18.18
2023-02-19T23:20:54.676Z,18.26
2023-02-19T23:23:27.359Z,18.16
2023-02-19T23:26:00.278Z,18.20
2023-02-19T23:28:33.032Z,18.20
2023-02-19T23:31:05.798Z,18.11
2023-02-19T23:33:39.701Z,18.11
2023-02-19T23:36:14.185Z,18.16
2023-02-19T23:38:47.802Z,18.14
2023-02-19T23:41:20.566Z,18.13
2023-02-19T23:43:53.360Z,18.09
2023-02-19T23:46:26.124Z,18.02
2023-02-19T23:48:59.900Z,18.06
2023-02-19T23:51:34.733Z,18.08
2023-02-19T23:54:07.724Z,18.02
2023-02-19T23:56:40.455Z,18.04
2023-02-19T23:59:13.308Z,18.00
